createdAt,value
2022-09-11T00:02:21.704Z,16.27
2022-09-11T00:05:23.350Z,16.25
2022-09-11T00:08:25.025Z,16.26
2022-09-11T00:11:29.961Z,16.34
2022-09-11T00:14:31.727Z,16.28
2022-09-11T00:17:33.408Z,16.25
2022-09-11T00:20:36.979Z,16.28
2022-09-11T00:23:38.851Z,16.23
2022-09-11T00:26:42.655Z,16.28
2022-09-11T00:29:44.384Z,16.33
2022-09-11T00:32:46.101Z,16.26
2022-09-11T00:35:58.292Z,16.18
2022-09-11T00:39:00.043Z,16.20
2022-09-11T00:42:05.217Z,16.28
2022-09-11T00:45:08.979Z,16.28
2022-09-11T00:48:14.432Z,16.25
2022-09-11T00:51:20.225Z,16.37
2022-09-11T00:54:26.600Z,16.29
2022-09-11T00:57:33.834Z,16.27
2022-09-11T01:00:39.328Z,16.29
2022-09-11T01:03:42.288Z,16.32
2022-09-11T01:06:46.561Z,16.28
2022-09-11T01:09:48.712Z,16.34
2022-09-11T01:13:01.066Z,16.45
2022-09-11T01:16:12.959Z,16.35
2022-09-11T01:19:30.302Z,16.18
2022-09-11T01:22:51.666Z,16.26
2022-09-11T01:26:07.160Z,16.31
2022-09-11T01:29:17.820Z,16.24
2022-09-11T01:32:23.939Z,16.34
2022-09-11T01:35:37.093Z,16.20
2022-09-11T01:38:46.645Z,16.19
2022-09-11T01:41:53.169Z,16.22
2022-09-11T01:44:57.603Z,16.20
2022-09-11T01:48:00.495Z,16.26
2022-09-11T01:51:04.077Z,16.26
2022-09-11T01:54:11.077Z,16.17
2022-09-11T01:57:24.813Z,16.04
2022-09-11T02:00:31.975Z,16.23
2022-09-11T02:03:38.169Z,16.26
2022-09-11T02:06:48.845Z,16.18
2022-09-11T02:09:54.881Z,16.26
2022-09-11T02:13:07.694Z,16.24
2022-09-11T02:16:19.872Z,16.20
2022-09-11T02:19:26.266Z,16.26
2022-09-11T02:22:28.142Z,16.18
2022-09-11T02:25:29.826Z,16.08
2022-09-11T02:28:31.801Z,16.00
2022-09-11T02:31:35.464Z,16.12
2022-09-11T02:34:40.346Z,16.16
2022-09-11T02:37:54.914Z,16.19
2022-09-11T02:41:08.614Z,16.11
2022-09-11T02:44:20.365Z,16.17
2022-09-11T02:47:38.818Z,16.19
2022-09-11T02:50:50.364Z,16.13
2022-09-11T02:54:02.183Z,16.22
2022-09-11T02:57:11.516Z,16.26
2022-09-11T03:00:13.503Z,16.29
2022-09-11T03:03:17.219Z,16.18
2022-09-11T03:06:21.495Z,16.23
2022-09-11T03:09:23.203Z,16.25
2022-09-11T03:12:29.063Z,16.30
2022-09-11T03:15:30.994Z,16.25
2022-09-11T03:18:34.158Z,16.08
2022-09-11T03:21:36.575Z,15.96
2022-09-11T03:24:39.638Z,16.11
2022-09-11T03:27:42.082Z,16.13
2022-09-11T03:30:49.122Z,16.29
2022-09-11T03:33:52.320Z,16.21
2022-09-11T03:36:54.092Z,16.08
2022-09-11T03:39:55.766Z,16.08
2022-09-11T03:42:57.423Z,16.09
2022-09-11T03:46:00.473Z,16.11
2022-09-11T03:49:03.522Z,16.01
2022-09-11T03:52:05.842Z,16.08
2022-09-11T03:55:08.150Z,16.01
2022-09-11T03:58:10.011Z,16.17
2022-09-11T04:01:18.986Z,16.28
2022-09-11T04:04:22.697Z,16.20
2022-09-11T04:07:24.476Z,16.06
2022-09-11T04:10:26.233Z,16.11
2022-09-11T04:13:28.804Z,16.12
2022-09-11T04:16:32.833Z,16.02
2022-09-11T04:19:36.456Z,16.00
2022-09-11T04:22:39.235Z,16.15
2022-09-11T04:25:40.956Z,15.99
2022-09-11T04:28:43.238Z,16.08
2022-09-11T04:31:46.152Z,16.02
2022-09-11T04:34:51.102Z,16.02
2022-09-11T04:37:52.693Z,16.12
2022-09-11T04:40:55.289Z,16.11
2022-09-11T04:44:04.090Z,16.16
2022-09-11T04:47:08.942Z,16.15
2022-09-11T04:50:12.779Z,16.13
2022-09-11T04:53:15.980Z,16.10
2022-09-11T04:56:21.179Z,15.89
2022-09-11T04:59:23.776Z,15.88
2022-09-11T05:02:33.536Z,15.95
2022-09-11T05:05:36.567Z,15.87
2022-09-11T05:08:38.245Z,15.96
2022-09-11T05:11:42.100Z,15.97
2022-09-11T05:14:44.909Z,15.85
2022-09-11T05:17:48.312Z,15.81
2022-09-11T05:21:00.544Z,15.77
2022-09-11T05:24:03.384Z,15.71
2022-09-11T05:27:07.384Z,15.80
2022-09-11T05:30:10.471Z,15.80
2022-09-11T05:33:13.695Z,15.93
2022-09-11T05:36:16.834Z,15.86
2022-09-11T05:39:19.191Z,15.88
2022-09-11T05:42:22.067Z,15.97
2022-09-11T05:45:27.618Z,16.10
2022-09-11T05:48:30.253Z,16.22
2022-09-11T05:51:37.580Z,16.14
2022-09-11T05:54:40.529Z,16.09
2022-09-11T05:57:42.292Z,16.01
2022-09-11T06:00:46.602Z,16.06
2022-09-11T06:03:49.301Z,16.08
2022-09-11T06:06:54.420Z,16.06
2022-09-11T06:10:00.998Z,16.08
2022-09-11T06:13:05.762Z,16.14
2022-09-11T06:16:13.405Z,16.17
2022-09-11T06:19:17.610Z,16.26
2022-09-11T06:22:21.919Z,16.33
2022-09-11T06:25:25.699Z,16.39
2022-09-11T06:28:27.316Z,16.31
2022-09-11T06:31:29.878Z,16.39
2022-09-11T06:34:31.837Z,16.38
2022-09-11T06:37:38.763Z,16.31
2022-09-11T06:40:42.690Z,16.43
2022-09-11T06:43:45.017Z,16.31
2022-09-11T06:46:47.731Z,16.31
2022-09-11T06:49:49.408Z,16.28
2022-09-11T06:53:07.317Z,16.38
2022-09-11T06:56:13.307Z,16.47
2022-09-11T06:59:16.596Z,16.57
2022-09-11T07:02:18.259Z,16.43
2022-09-11T07:05:25.716Z,16.46
2022-09-11T07:08:29.737Z,16.51
2022-09-11T07:11:33.396Z,16.51
2022-09-11T07:14:35.697Z,16.64
2022-09-11T07:17:46.364Z,16.72
2022-09-11T07:20:48.944Z,16.79
2022-09-11T07:23:54.838Z,16.95
2022-09-11T07:26:56.894Z,16.82
2022-09-11T07:30:07.144Z,16.79
2022-09-11T07:33:12.578Z,16.90
2022-09-11T07:36:18.630Z,17.01
2022-09-11T07:39:25.646Z,17.11
2022-09-11T07:42:41.129Z,17.17
2022-09-11T07:45:42.896Z,17.12
2022-09-11T07:48:45.624Z,17.27
2022-09-11T07:51:47.407Z,17.49
2022-09-11T07:54:56.462Z,17.44
2022-09-11T07:58:02.228Z,17.37
2022-09-11T08:01:05.349Z,17.26
2022-09-11T08:04:11.042Z,17.48
2022-09-11T08:07:12.873Z,17.53
2022-09-11T08:10:27.141Z,17.51
2022-09-11T08:13:30.132Z,17.67
2022-09-11T08:16:32.676Z,17.55
2022-09-11T08:19:35.500Z,17.57
2022-09-11T08:22:37.671Z,17.49
2022-09-11T08:25:42.383Z,17.57
2022-09-11T08:28:45.237Z,17.68
2022-09-11T08:31:46.980Z,17.76
2022-09-11T08:34:49.378Z,17.80
2022-09-11T08:37:54.901Z,17.98
2022-09-11T08:41:09.195Z,17.92
2022-09-11T08:44:17.318Z,18.07
2022-09-11T08:47:24.126Z,18.25
2022-09-11T08:50:31.541Z,18.27
2022-09-11T08:53:34.266Z,18.31
2022-09-11T08:56:38.426Z,18.29
2022-09-11T08:59:59.402Z,18.14
2022-09-11T09:03:34.965Z,18.36
2022-09-11T09:06:51.778Z,18.42
2022-09-11T09:10:03.261Z,18.58
2022-09-11T09:13:25.722Z,18.76
2022-09-11T09:16:42.383Z,18.78
2022-09-11T09:19:52.542Z,18.82
2022-09-11T09:22:57.750Z,18.84
2022-09-11T09:26:01.537Z,18.96
2022-09-11T09:29:14.586Z,18.99
2022-09-11T09:32:24.028Z,18.90
2022-09-11T09:35:30.499Z,18.97
2022-09-11T09:38:33.043Z,19.03
2022-09-11T09:42:01.138Z,19.25
2022-09-11T09:45:19.086Z,19.32
2022-09-11T09:48:20.937Z,19.29
2022-09-11T09:51:22.744Z,19.17
2022-09-11T09:54:26.607Z,19.06
2022-09-11T09:57:31.998Z,18.91
2022-09-11T10:00:37.639Z,18.65
2022-09-11T10:03:39.355Z,18.37
2022-09-11T10:06:41.366Z,17.93
2022-09-11T10:09:46.819Z,17.84
2022-09-11T10:12:48.817Z,17.80
2022-09-11T10:15:53.801Z,17.82
2022-09-11T10:18:56.274Z,17.85
2022-09-11T10:22:21.989Z,17.92
2022-09-11T10:25:29.785Z,18.02
2022-09-11T10:28:33.359Z,18.12
2022-09-11T10:31:40.162Z,18.06
2022-09-11T10:34:42.293Z,18.04
2022-09-11T10:37:44.160Z,18.08
2022-09-11T10:40:56.303Z,18.25
2022-09-11T10:44:01.749Z,18.36
2022-09-11T10:47:13.623Z,18.33
2022-09-11T10:50:23.024Z,18.44
2022-09-11T10:53:25.358Z,18.55
2022-09-11T10:56:27.962Z,18.75
2022-09-11T10:59:37.645Z,18.69
2022-09-11T11:02:44.077Z,18.63
2022-09-11T11:05:56.104Z,18.71
2022-09-11T11:09:27.730Z,18.71
2022-09-11T11:12:47.618Z,18.87
2022-09-11T11:16:02.971Z,18.77
2022-09-11T11:19:26.547Z,18.87
2022-09-11T11:22:48.735Z,18.96
2022-09-11T11:26:02.929Z,19.03
2022-09-11T11:29:20.425Z,19.15
2022-09-11T11:32:41.523Z,19.14
2022-09-11T11:35:54.151Z,19.48
2022-09-11T11:39:02.022Z,19.81
2022-09-11T11:42:12.609Z,19.85
2022-09-11T11:45:23.280Z,19.98
2022-09-11T11:48:29.252Z,20.45
2022-09-11T11:51:34.818Z,20.48
2022-09-11T11:54:42.310Z,20.59
2022-09-11T11:57:54.113Z,20.63
2022-09-11T12:01:00.140Z,20.78
2022-09-11T12:04:09.592Z,21.20
2022-09-11T12:07:17.800Z,21.18
2022-09-11T12:10:27.507Z,20.86
2022-09-11T12:13:32.510Z,20.78
2022-09-11T12:16:36.428Z,20.66
2022-09-11T12:19:58.379Z,20.77
2022-09-11T12:23:01.819Z,21.19
2022-09-11T12:26:18.070Z,21.73
2022-09-11T12:29:56.405Z,21.59
2022-09-11T12:33:01.120Z,21.89
2022-09-11T12:36:07.720Z,21.59
2022-09-11T12:39:24.785Z,21.66
2022-09-11T12:42:45.973Z,21.56
2022-09-11T12:45:48.260Z,21.96
2022-09-11T12:49:18.079Z,22.11
2022-09-11T12:52:30.428Z,22.14
2022-09-11T12:55:39.686Z,21.75
2022-09-11T12:58:44.899Z,21.64
2022-09-11T13:01:46.887Z,21.51
2022-09-11T13:04:48.893Z,21.29
2022-09-11T13:07:56.724Z,21.10
2022-09-11T13:11:32.122Z,20.91
2022-09-11T13:14:51.671Z,20.96
2022-09-11T13:17:53.769Z,20.97
2022-09-11T13:21:12.306Z,20.83
2022-09-11T13:24:25.237Z,20.90
2022-09-11T13:27:28.149Z,21.30
2022-09-11T13:30:31.172Z,21.58
2022-09-11T13:33:32.873Z,22.16
2022-09-11T13:36:35.912Z,22.47
2022-09-11T13:39:41.899Z,22.91
2022-09-11T13:42:43.657Z,22.59
2022-09-11T13:45:47.884Z,22.53
2022-09-11T13:48:52.081Z,22.41
2022-09-11T13:51:53.750Z,21.81
2022-09-11T13:54:58.736Z,21.57
2022-09-11T13:58:02.398Z,21.58
2022-09-11T14:01:11.437Z,21.62
2022-09-11T14:04:13.086Z,21.33
2022-09-11T14:07:21.274Z,21.37
2022-09-11T14:10:27.279Z,21.39
2022-09-11T14:13:33.493Z,21.33
2022-09-11T14:16:45.187Z,21.35
2022-09-11T14:19:48.100Z,21.25
2022-09-11T14:22:53.965Z,21.21
2022-09-11T14:26:11.209Z,21.01
2022-09-11T14:29:23.542Z,21.06
2022-09-11T14:32:36.740Z,20.92
2022-09-11T14:35:38.639Z,20.93
2022-09-11T14:38:40.588Z,20.82
2022-09-11T14:41:44.007Z,21.32
2022-09-11T14:44:45.659Z,22.11
2022-09-11T14:47:48.870Z,22.79
2022-09-11T14:50:50.694Z,22.89
2022-09-11T14:53:52.430Z,23.12
2022-09-11T14:56:54.163Z,22.93
2022-09-11T14:59:55.890Z,23.07
2022-09-11T15:03:00.257Z,23.06
2022-09-11T15:06:01.966Z,23.41
2022-09-11T15:09:03.766Z,23.22
2022-09-11T15:12:06.045Z,23.54
2022-09-11T15:15:08.923Z,23.33
2022-09-11T15:18:12.248Z,23.23
2022-09-11T15:21:13.937Z,23.35
2022-09-11T15:24:15.585Z,22.79
2022-09-11T15:27:18.989Z,23.08
2022-09-11T15:30:21.278Z,22.76
2022-09-11T15:33:24.370Z,22.54
2022-09-11T15:36:26.375Z,22.36
2022-09-11T15:39:28.337Z,22.11
2022-09-11T15:42:30.908Z,22.16
2022-09-11T15:45:32.992Z,22.54
2022-09-11T15:48:36.180Z,22.65
2022-09-11T15:51:38.830Z,22.56
2022-09-11T15:54:41.039Z,22.24
2022-09-11T15:57:42.651Z,22.42
2022-09-11T16:00:46.032Z,22.42
2022-09-11T16:03:51.867Z,22.20
2022-09-11T16:06:54.499Z,22.07
2022-09-11T16:09:56.077Z,21.86
2022-09-11T16:12:58.990Z,21.87
2022-09-11T16:16:02.635Z,22.00
2022-09-11T16:19:05.747Z,22.05
2022-09-11T16:22:07.480Z,22.03
2022-09-11T16:25:09.367Z,21.77
2022-09-11T16:28:10.953Z,21.72
2022-09-11T16:31:13.740Z,21.81
2022-09-11T16:34:17.913Z,21.44
2022-09-11T16:37:19.745Z,21.41
2022-09-11T16:40:21.537Z,21.22
2022-09-11T16:43:23.182Z,21.10
2022-09-11T16:46:26.924Z,21.21
2022-09-11T16:49:37.203Z,21.46
2022-09-11T16:52:46.499Z,21.13
2022-09-11T16:55:48.499Z,21.12
2022-09-11T16:58:50.621Z,21.25
2022-09-11T17:01:52.424Z,21.08
2022-09-11T17:04:55.445Z,20.79
2022-09-11T17:07:57.378Z,20.66
2022-09-11T17:11:02.252Z,20.80
2022-09-11T17:14:04.221Z,20.61
2022-09-11T17:17:05.856Z,20.50
2022-09-11T17:20:11.632Z,20.21
2022-09-11T17:23:13.963Z,20.27
2022-09-11T17:26:16.831Z,20.05
2022-09-11T17:29:19.597Z,20.00
2022-09-11T17:32:29.795Z,19.74
2022-09-11T17:35:32.813Z,19.49
2022-09-11T17:38:34.774Z,19.28
2022-09-11T17:41:36.501Z,19.25
2022-09-11T17:44:38.224Z,19.11
2022-09-11T17:47:40.932Z,18.92
2022-09-11T17:50:43.937Z,18.70
2022-09-11T17:53:47.828Z,18.58
2022-09-11T17:56:50.493Z,18.72
2022-09-11T17:59:52.653Z,18.54
2022-09-11T18:02:57.095Z,18.27
2022-09-11T18:06:01.815Z,18.12
2022-09-11T18:09:11.838Z,18.15
2022-09-11T18:12:14.553Z,18.22
2022-09-11T18:15:16.320Z,18.03
2022-09-11T18:18:18.007Z,18.04
2022-09-11T18:21:21.125Z,17.94
2022-09-11T18:24:22.817Z,17.90
2022-09-11T18:27:24.628Z,17.72
2022-09-11T18:30:26.385Z,17.67
2022-09-11T18:33:28.071Z,17.33
2022-09-11T18:36:31.531Z,17.35
2022-09-11T18:39:34.071Z,17.51
2022-09-11T18:42:35.735Z,17.49
2022-09-11T18:45:37.453Z,17.32
2022-09-11T18:48:42.450Z,17.10
2022-09-11T18:51:45.503Z,17.21
2022-09-11T18:54:47.163Z,17.04
2022-09-11T18:57:49.392Z,17.10
2022-09-11T19:00:51.057Z,17.19
2022-09-11T19:03:53.410Z,17.07
2022-09-11T19:06:56.462Z,16.96
2022-09-11T19:10:00.250Z,16.88
2022-09-11T19:13:02.418Z,16.74
2022-09-11T19:16:05.264Z,16.88
2022-09-11T19:19:07.551Z,16.93
2022-09-11T19:22:11.248Z,16.82
2022-09-11T19:25:13.786Z,16.85
2022-09-11T19:28:16.011Z,16.63
2022-09-11T19:31:24.794Z,16.49
2022-09-11T19:34:26.676Z,16.62
2022-09-11T19:37:29.735Z,16.56
2022-09-11T19:40:31.679Z,16.52
2022-09-11T19:43:35.147Z,16.42
2022-09-11T19:46:38.135Z,16.44
2022-09-11T19:49:39.870Z,16.45
2022-09-11T19:52:42.943Z,16.46
2022-09-11T19:55:44.806Z,16.48
2022-09-11T19:58:46.475Z,16.44
2022-09-11T20:01:48.237Z,16.31
2022-09-11T20:04:49.971Z,16.35
2022-09-11T20:07:53.995Z,16.25
2022-09-11T20:10:55.781Z,16.18
2022-09-11T20:14:00.618Z,16.12
2022-09-11T20:17:08.198Z,16.16
2022-09-11T20:20:10.120Z,16.11
2022-09-11T20:23:13.145Z,16.15
2022-09-11T20:26:17.559Z,16.15
2022-09-11T20:29:19.437Z,16.12
2022-09-11T20:32:21.212Z,16.07
2022-09-11T20:35:23.042Z,16.12
2022-09-11T20:38:26.109Z,16.03
2022-09-11T20:41:30.053Z,15.99
2022-09-11T20:44:36.231Z,15.85
2022-09-11T20:47:38.719Z,15.89
2022-09-11T20:50:40.380Z,15.93
2022-09-11T20:53:45.629Z,15.89
2022-09-11T20:56:47.442Z,15.94
2022-09-11T20:59:49.883Z,15.82
2022-09-11T21:02:51.525Z,15.81
2022-09-11T21:05:54.519Z,15.72
2022-09-11T21:08:59.396Z,15.66
2022-09-11T21:12:01.048Z,15.65
2022-09-11T21:15:02.656Z,15.68
2022-09-11T21:18:04.501Z,15.59
2022-09-11T21:21:07.001Z,15.63
2022-09-11T21:24:12.738Z,15.49
2022-09-11T21:27:14.455Z,15.56
2022-09-11T21:30:16.241Z,15.48
2022-09-11T21:33:18.391Z,15.31
2022-09-11T21:36:20.110Z,15.40
2022-09-11T21:39:23.129Z,15.35
2022-09-11T21:42:24.798Z,15.37
2022-09-11T21:45:26.435Z,15.43
2022-09-11T21:48:31.252Z,15.34
2022-09-11T21:51:35.337Z,15.33
2022-09-11T21:54:39.085Z,15.29
2022-09-11T21:57:40.716Z,15.37
2022-09-11T22:00:43.392Z,15.40
2022-09-11T22:03:45.789Z,15.41
2022-09-11T22:06:47.529Z,15.17
2022-09-11T22:09:51.555Z,15.27
2022-09-11T22:12:53.519Z,15.28
2022-09-11T22:15:55.277Z,15.08
2022-09-11T22:18:57.129Z,15.11
2022-09-11T22:21:58.756Z,15.11
2022-09-11T22:25:01.697Z,15.23
2022-09-11T22:28:04.086Z,15.17
2022-09-11T22:31:10.624Z,15.11
2022-09-11T22:34:12.353Z,15.07
2022-09-11T22:37:13.959Z,14.99
2022-09-11T22:40:17.181Z,15.06
2022-09-11T22:43:18.957Z,15.03
2022-09-11T22:46:21.201Z,14.97
2022-09-11T22:49:22.962Z,14.99
2022-09-11T22:52:24.687Z,14.97
2022-09-11T22:55:27.685Z,15.01
2022-09-11T22:58:30.606Z,14.91
2022-09-11T23:01:32.336Z,14.90
2022-09-11T23:04:34.015Z,14.94
2022-09-11T23:07:35.645Z,14.89
2022-09-11T23:10:41.660Z,14.88
2022-09-11T23:13:43.950Z,14.85
2022-09-11T23:16:45.582Z,14.81
2022-09-11T23:19:47.975Z,14.90
2022-09-11T23:22:49.759Z,14.90
2022-09-11T23:25:52.747Z,14.79
2022-09-11T23:28:55.462Z,14.81
2022-09-11T23:31:57.531Z,14.85
2022-09-11T23:34:59.344Z,14.87
2022-09-11T23:38:00.986Z,14.68
2022-09-11T23:41:04.383Z,14.74
2022-09-11T23:44:06.203Z,14.80
2022-09-11T23:47:08.548Z,14.72
2022-09-11T23:50:10.627Z,14.81
2022-09-11T23:53:12.378Z,14.62
2022-09-11T23:56:15.435Z,14.79
2022-09-11T23:59:17.097Z,14.71
